createdAt,value
2022-07-30T00:00:29.928Z,2.03
2022-07-30T00:02:58.416Z,2.27
2022-07-30T00:05:28.461Z,2.55
2022-07-30T00:07:56.954Z,2.10
2022-07-30T00:10:25.387Z,2.25
2022-07-30T00:12:53.878Z,2.45
2022-07-30T00:15:22.367Z,1.85
2022-07-30T00:17:50.802Z,1.80
2022-07-30T00:20:19.693Z,2.08
2022-07-30T00:22:49.473Z,1.98
2022-07-30T00:25:19.791Z,2.53
2022-07-30T00:27:48.273Z,2.63
2022-07-30T00:30:17.034Z,2.20
2022-07-30T00:32:45.591Z,2.20
2022-07-30T00:35:15.051Z,1.90
2022-07-30T00:37:43.540Z,1.83
2022-07-30T00:40:13.480Z,1.70
2022-07-30T00:42:43.684Z,1.77
2022-07-30T00:45:13.456Z,1.75
2022-07-30T00:47:42.582Z,1.70
2022-07-30T00:50:12.563Z,2.20
2022-07-30T00:52:41.468Z,1.67
2022-07-30T00:55:12.869Z,2.20
2022-07-30T00:57:41.355Z,2.13
2022-07-30T01:00:12.546Z,2.00
2022-07-30T01:02:41.180Z,1.83
2022-07-30T01:05:10.744Z,1.75
2022-07-30T01:07:39.201Z,1.42
2022-07-30T01:10:09.089Z,1.48
2022-07-30T01:12:38.988Z,1.63
2022-07-30T01:15:09.329Z,1.90
2022-07-30T01:17:38.110Z,2.00
2022-07-30T01:20:09.139Z,1.95
2022-07-30T01:22:47.324Z,2.15
2022-07-30T01:25:22.253Z,1.52
2022-07-30T01:27:54.896Z,1.92
2022-07-30T01:30:26.518Z,1.73
2022-07-30T01:32:56.546Z,1.95
2022-07-30T01:35:27.510Z,1.60
2022-07-30T01:37:57.724Z,2.03
2022-07-30T01:40:27.902Z,1.80
2022-07-30T01:43:00.538Z,1.80
2022-07-30T01:45:32.242Z,2.25
2022-07-30T01:48:06.616Z,1.83
2022-07-30T01:50:36.522Z,2.00
2022-07-30T01:53:05.126Z,1.90
2022-07-30T01:55:36.249Z,1.88
2022-07-30T01:58:08.170Z,1.77
2022-07-30T02:00:39.291Z,1.77
2022-07-30T02:03:08.827Z,1.60
2022-07-30T02:05:38.723Z,2.22
2022-07-30T02:08:12.350Z,1.40
2022-07-30T02:10:45.735Z,2.00
2022-07-30T02:13:19.088Z,1.88
2022-07-30T02:15:50.894Z,2.08
2022-07-30T02:18:23.677Z,2.00
2022-07-30T02:20:59.119Z,1.95
2022-07-30T02:23:28.560Z,2.15
2022-07-30T02:26:00.587Z,1.60
2022-07-30T02:28:30.848Z,1.73
2022-07-30T02:31:01.318Z,1.90
2022-07-30T02:33:32.139Z,2.17
2022-07-30T02:36:01.214Z,2.00
2022-07-30T02:38:30.414Z,1.75
2022-07-30T02:41:01.650Z,1.85
2022-07-30T02:43:35.466Z,2.30
2022-07-30T02:46:06.003Z,2.10
2022-07-30T02:48:35.624Z,1.88
2022-07-30T02:51:05.303Z,2.22
2022-07-30T02:53:34.431Z,2.20
2022-07-30T02:56:03.152Z,1.40
2022-07-30T02:58:33.126Z,1.98
2022-07-30T03:01:03.346Z,2.20
2022-07-30T03:03:33.161Z,1.75
2022-07-30T03:06:02.305Z,1.80
2022-07-30T03:08:31.208Z,1.92
2022-07-30T03:10:59.885Z,2.03
2022-07-30T03:13:28.263Z,1.80
2022-07-30T03:15:59.949Z,1.48
2022-07-30T03:18:32.788Z,1.85
2022-07-30T03:21:01.956Z,1.48
2022-07-30T03:23:31.534Z,1.80
2022-07-30T03:26:03.538Z,1.85
2022-07-30T03:28:34.102Z,1.73
2022-07-30T03:31:04.725Z,1.73
2022-07-30T03:33:38.901Z,1.90
2022-07-30T03:36:08.817Z,1.88
2022-07-30T03:38:38.988Z,1.63
2022-07-30T03:41:08.762Z,1.60
2022-07-30T03:43:38.153Z,1.90
2022-07-30T03:46:08.852Z,1.75
2022-07-30T03:48:37.686Z,1.73
2022-07-30T03:51:09.271Z,2.00
2022-07-30T03:53:37.862Z,2.20
2022-07-30T03:56:06.615Z,1.98
2022-07-30T03:58:35.856Z,1.75
2022-07-30T04:01:04.692Z,2.05
2022-07-30T04:03:35.034Z,2.30
2022-07-30T04:06:03.877Z,1.90
2022-07-30T04:08:32.847Z,2.25
2022-07-30T04:11:01.351Z,2.03
2022-07-30T04:13:29.807Z,1.83
2022-07-30T04:16:37.261Z,2.00
2022-07-30T04:18:54.873Z,1.98
2022-07-30T04:21:25.082Z,1.90
2022-07-30T04:24:03.100Z,2.53
2022-07-30T04:26:35.075Z,1.88
2022-07-30T04:29:05.660Z,1.70
2022-07-30T04:31:40.612Z,2.05
2022-07-30T04:34:15.093Z,1.98
2022-07-30T04:36:44.253Z,2.08
2022-07-30T04:39:13.121Z,1.90
2022-07-30T04:41:49.716Z,1.88
2022-07-30T04:44:19.163Z,1.90
2022-07-30T04:46:47.824Z,1.90
2022-07-30T04:49:18.377Z,2.00
2022-07-30T04:51:47.100Z,2.47
2022-07-30T04:54:16.470Z,2.05
2022-07-30T04:56:53.311Z,2.50
2022-07-30T04:59:25.137Z,1.95
2022-07-30T05:01:55.275Z,2.15
2022-07-30T05:04:26.036Z,2.13
2022-07-30T05:06:54.984Z,2.25
2022-07-30T05:09:24.065Z,2.03
2022-07-30T05:11:53.246Z,1.90
2022-07-30T05:14:22.304Z,1.67
2022-07-30T05:16:50.853Z,2.00
2022-07-30T05:19:19.541Z,2.30
2022-07-30T05:21:49.309Z,1.80
2022-07-30T05:24:17.803Z,1.90
2022-07-30T05:26:46.495Z,1.95
2022-07-30T05:29:20.100Z,1.67
2022-07-30T05:31:49.470Z,1.88
2022-07-30T05:34:18.145Z,2.00
2022-07-30T05:36:47.881Z,1.83
2022-07-30T05:39:17.229Z,1.50
2022-07-30T05:41:45.599Z,1.80
2022-07-30T05:44:13.997Z,1.70
2022-07-30T05:46:42.479Z,2.28
2022-07-30T05:49:11.125Z,1.73
2022-07-30T05:51:39.896Z,2.10
2022-07-30T05:54:09.720Z,1.80
2022-07-30T05:56:38.229Z,1.50
2022-07-30T05:59:06.628Z,1.38
2022-07-30T06:01:35.157Z,1.60
2022-07-30T06:04:03.706Z,1.40
2022-07-30T06:06:32.151Z,1.50
2022-07-30T06:09:00.711Z,1.42
2022-07-30T06:11:30.485Z,1.35
2022-07-30T06:13:58.871Z,1.30
2022-07-30T06:16:27.323Z,1.10
2022-07-30T06:18:55.855Z,1.50
2022-07-30T06:21:24.265Z,1.30
2022-07-30T06:23:52.656Z,1.30
2022-07-30T06:26:21.054Z,1.20
2022-07-30T06:28:50.802Z,1.40
2022-07-30T06:31:19.629Z,1.80
2022-07-30T06:33:48.084Z,1.52
2022-07-30T06:36:16.495Z,1.30
2022-07-30T06:38:44.895Z,1.65
2022-07-30T06:41:13.328Z,1.23
2022-07-30T06:43:41.706Z,1.35
2022-07-30T06:46:11.573Z,1.10
2022-07-30T06:48:42.269Z,1.40
2022-07-30T06:51:10.728Z,1.20
2022-07-30T06:53:42.638Z,1.30
2022-07-30T06:56:11.405Z,1.25
2022-07-30T06:58:40.242Z,0.98
2022-07-30T07:01:11.295Z,1.75
2022-07-30T07:03:40.691Z,1.30
2022-07-30T07:06:09.632Z,1.40
2022-07-30T07:08:38.609Z,1.20
2022-07-30T07:11:07.334Z,1.33
2022-07-30T07:13:35.808Z,1.35
2022-07-30T07:16:06.126Z,1.52
2022-07-30T07:18:35.878Z,1.70
2022-07-30T07:21:04.394Z,1.52
2022-07-30T07:23:40.541Z,1.58
2022-07-30T07:26:11.828Z,1.48
2022-07-30T07:28:41.104Z,1.52
2022-07-30T07:31:09.823Z,1.52
2022-07-30T07:33:40.542Z,1.52
2022-07-30T07:36:09.050Z,1.42
2022-07-30T07:38:37.808Z,1.52
2022-07-30T07:41:06.494Z,1.40
2022-07-30T07:43:34.909Z,1.23
2022-07-30T07:46:03.513Z,1.30
2022-07-30T07:48:32.050Z,1.30
2022-07-30T07:51:01.914Z,1.20
2022-07-30T07:53:30.334Z,1.52
2022-07-30T07:55:59.650Z,1.55
2022-07-30T07:58:28.219Z,1.40
2022-07-30T08:00:58.312Z,1.40
2022-07-30T08:03:26.855Z,1.40
2022-07-30T08:06:05.605Z,1.35
2022-07-30T08:08:37.076Z,1.20
2022-07-30T08:11:07.008Z,1.35
2022-07-30T08:13:48.970Z,1.58
2022-07-30T08:16:21.424Z,1.45
2022-07-30T08:18:49.829Z,1.30
2022-07-30T08:21:18.287Z,1.33
2022-07-30T08:23:48.159Z,1.50
2022-07-30T08:26:17.068Z,1.10
2022-07-30T08:28:45.786Z,1.55
2022-07-30T08:31:14.425Z,1.80
2022-07-30T08:33:42.859Z,1.20
2022-07-30T08:36:11.302Z,1.38
2022-07-30T08:38:40.143Z,1.42
2022-07-30T08:41:10.093Z,1.38
2022-07-30T08:43:39.037Z,1.30
2022-07-30T08:46:11.198Z,1.02
2022-07-30T08:48:39.967Z,1.50
2022-07-30T08:51:08.799Z,1.10
2022-07-30T08:53:38.871Z,1.08
2022-07-30T08:56:13.491Z,1.27
2022-07-30T08:58:43.769Z,1.00
2022-07-30T09:01:12.142Z,1.30
2022-07-30T09:03:44.486Z,1.40
2022-07-30T09:06:13.433Z,1.10
2022-07-30T09:08:42.989Z,1.30
2022-07-30T09:11:13.983Z,1.13
2022-07-30T09:13:44.504Z,1.30
2022-07-30T09:16:21.569Z,1.40
2022-07-30T09:18:50.634Z,1.40
2022-07-30T09:21:21.338Z,1.30
2022-07-30T09:24:00.396Z,1.20
2022-07-30T09:26:30.827Z,1.17
2022-07-30T09:29:16.156Z,1.17
2022-07-30T09:31:56.866Z,1.25
2022-07-30T09:34:29.621Z,1.35
2022-07-30T09:36:59.002Z,1.20
2022-07-30T09:39:31.994Z,1.25
2022-07-30T09:42:02.374Z,1.30
2022-07-30T09:44:32.028Z,1.27
2022-07-30T09:47:02.776Z,1.33
2022-07-30T09:49:31.579Z,1.67
2022-07-30T09:52:00.458Z,1.23
2022-07-30T09:54:51.357Z,1.27
2022-07-30T09:57:25.932Z,1.30
2022-07-30T09:59:57.579Z,1.30
2022-07-30T10:02:32.838Z,1.10
2022-07-30T10:05:15.406Z,1.38
2022-07-30T10:07:52.516Z,1.40
2022-07-30T10:10:25.275Z,1.63
2022-07-30T10:13:00.938Z,1.30
2022-07-30T10:15:32.585Z,1.60
2022-07-30T10:18:02.306Z,1.60
2022-07-30T10:20:34.896Z,1.23
2022-07-30T10:23:08.150Z,1.23
2022-07-30T10:25:54.809Z,1.17
2022-07-30T10:28:25.754Z,1.13
2022-07-30T10:30:56.121Z,1.30
2022-07-30T10:33:36.366Z,1.30
2022-07-30T10:36:11.237Z,1.40
2022-07-30T10:38:42.824Z,1.45
2022-07-30T10:41:16.855Z,1.15
2022-07-30T10:44:31.168Z,1.20
2022-07-30T10:47:06.979Z,1.35
2022-07-30T10:49:40.923Z,1.40
2022-07-30T10:52:10.708Z,1.25
2022-07-30T10:54:44.416Z,1.70
2022-07-30T10:57:14.974Z,1.23
2022-07-30T11:00:17.733Z,1.63
2022-07-30T11:03:18.559Z,1.27
2022-07-30T11:05:51.360Z,1.33
2022-07-30T11:08:37.393Z,1.40
2022-07-30T11:12:02.254Z,1.77
2022-07-30T11:15:06.292Z,1.92
2022-07-30T11:18:12.835Z,2.10
2022-07-30T11:20:48.477Z,2.00
2022-07-30T11:23:37.395Z,1.48
2022-07-30T11:26:08.177Z,3.30
2022-07-30T11:28:44.731Z,2.00
2022-07-30T11:31:55.746Z,1.60
2022-07-30T11:34:32.490Z,2.08
2022-07-30T11:37:19.264Z,1.75
2022-07-30T11:40:11.118Z,2.00
2022-07-30T11:42:41.346Z,1.67
2022-07-30T11:45:29.714Z,1.58
2022-07-30T11:48:03.144Z,1.65
2022-07-30T11:50:35.259Z,1.60
2022-07-30T11:53:05.432Z,2.17
2022-07-30T11:55:35.718Z,2.05
2022-07-30T11:58:06.010Z,2.10
2022-07-30T12:00:39.707Z,2.05
2022-07-30T12:03:15.796Z,2.03
2022-07-30T12:05:46.257Z,1.65
2022-07-30T12:08:36.111Z,1.67
2022-07-30T12:11:05.187Z,2.20
2022-07-30T12:13:44.884Z,1.50
2022-07-30T12:16:16.298Z,1.83
2022-07-30T12:18:45.591Z,1.60
2022-07-30T12:21:16.675Z,2.22
2022-07-30T12:23:54.681Z,1.77
2022-07-30T12:26:26.910Z,2.13
2022-07-30T12:28:56.561Z,1.88
2022-07-30T12:31:25.109Z,1.80
2022-07-30T12:33:56.220Z,1.67
2022-07-30T12:36:30.699Z,2.10
2022-07-30T12:38:59.973Z,1.67
2022-07-30T12:41:45.151Z,1.60
2022-07-30T12:44:37.392Z,1.55
2022-07-30T12:47:07.690Z,1.73
2022-07-30T12:49:36.795Z,1.63
2022-07-30T12:52:13.237Z,1.60
2022-07-30T12:54:46.859Z,1.83
2022-07-30T12:57:15.356Z,1.67
2022-07-30T12:59:43.753Z,1.30
2022-07-30T13:02:12.442Z,1.90
2022-07-30T13:05:11.019Z,1.60
2022-07-30T13:07:59.103Z,1.50
2022-07-30T13:10:31.210Z,2.13
2022-07-30T13:13:00.343Z,1.80
2022-07-30T13:15:28.916Z,1.80
2022-07-30T13:17:57.358Z,1.52
2022-07-30T13:20:25.915Z,2.05
2022-07-30T13:23:03.049Z,1.52
2022-07-30T13:25:38.714Z,1.48
2022-07-30T13:28:08.669Z,2.00
2022-07-30T13:30:37.111Z,1.70
2022-07-30T13:33:05.552Z,1.45
2022-07-30T13:35:36.307Z,1.38
2022-07-30T13:38:07.131Z,1.67
2022-07-30T13:40:35.623Z,1.55
2022-07-30T13:43:04.800Z,2.08
2022-07-30T13:45:33.192Z,1.67
2022-07-30T13:48:01.584Z,1.50
2022-07-30T13:50:29.968Z,1.90
2022-07-30T13:53:01.965Z,1.90
2022-07-30T13:55:32.236Z,1.55
2022-07-30T13:58:01.360Z,1.80
2022-07-30T14:00:32.497Z,1.70
2022-07-30T14:03:01.725Z,1.90
2022-07-30T14:05:30.941Z,1.80
2022-07-30T14:08:00.618Z,1.60
2022-07-30T14:10:29.078Z,1.77
2022-07-30T14:12:59.942Z,1.88
2022-07-30T14:15:30.932Z,1.50
2022-07-30T14:18:00.518Z,1.90
2022-07-30T14:20:29.352Z,1.48
2022-07-30T14:22:57.910Z,1.52
2022-07-30T14:25:26.404Z,1.65
2022-07-30T14:27:54.737Z,1.77
2022-07-30T14:30:25.115Z,1.48
2022-07-30T14:32:58.438Z,1.45
2022-07-30T14:35:28.898Z,1.85
2022-07-30T14:37:57.299Z,1.60
2022-07-30T14:40:25.989Z,1.50
2022-07-30T14:42:56.216Z,1.80
2022-07-30T14:45:26.149Z,1.42
2022-07-30T14:47:57.346Z,1.80
2022-07-30T14:50:25.773Z,2.05
2022-07-30T14:52:54.172Z,1.60
2022-07-30T14:55:22.748Z,1.95
2022-07-30T14:57:52.326Z,1.92
2022-07-30T15:00:21.189Z,1.95
2022-07-30T15:02:54.063Z,1.55
2022-07-30T15:05:22.622Z,2.10
2022-07-30T15:07:51.025Z,2.00
2022-07-30T15:10:19.856Z,1.98
2022-07-30T15:12:48.249Z,1.65
2022-07-30T15:15:17.245Z,2.15
2022-07-30T15:17:46.139Z,2.13
2022-07-30T15:20:15.923Z,1.77
2022-07-30T15:22:44.394Z,1.88
2022-07-30T15:25:12.708Z,2.30
2022-07-30T15:27:41.129Z,2.25
2022-07-30T15:30:10.164Z,1.80
2022-07-30T15:32:38.645Z,2.78
2022-07-30T15:35:13.200Z,2.00
2022-07-30T15:37:43.480Z,1.90
2022-07-30T15:40:12.208Z,1.77
2022-07-30T15:42:42.516Z,1.80
2022-07-30T15:45:17.549Z,1.92
2022-07-30T15:47:46.666Z,1.73
2022-07-30T15:50:15.382Z,1.85
2022-07-30T15:52:45.507Z,1.63
2022-07-30T15:55:14.185Z,1.98
2022-07-30T15:57:43.257Z,2.15
2022-07-30T16:00:12.583Z,1.70
2022-07-30T16:02:41.253Z,1.73
2022-07-30T16:05:13.950Z,1.40
2022-07-30T16:07:44.323Z,1.77
2022-07-30T16:10:12.894Z,1.80
2022-07-30T16:12:42.024Z,1.77
2022-07-30T16:15:11.845Z,1.60
2022-07-30T16:17:40.192Z,1.50
2022-07-30T16:20:10.088Z,1.50
2022-07-30T16:22:38.486Z,1.58
2022-07-30T16:25:08.764Z,1.40
2022-07-30T16:27:37.147Z,1.60
2022-07-30T16:30:06.348Z,1.17
2022-07-30T16:32:37.282Z,1.20
2022-07-30T16:35:09.315Z,1.75
2022-07-30T16:37:41.296Z,1.50
2022-07-30T16:40:12.441Z,1.48
2022-07-30T16:42:40.840Z,1.33
2022-07-30T16:45:10.186Z,1.50
2022-07-30T16:47:38.909Z,1.75
2022-07-30T16:50:08.125Z,1.45
2022-07-30T16:52:36.497Z,1.40
2022-07-30T16:55:05.634Z,1.60
2022-07-30T16:57:35.581Z,1.50
2022-07-30T17:00:04.810Z,1.70
2022-07-30T17:02:33.370Z,1.40
2022-07-30T17:05:01.850Z,1.20
2022-07-30T17:07:30.260Z,1.58
2022-07-30T17:09:58.742Z,1.88
2022-07-30T17:12:27.986Z,1.50
2022-07-30T17:14:57.786Z,1.80
2022-07-30T17:17:26.360Z,1.60
2022-07-30T17:19:54.747Z,1.40
2022-07-30T17:22:23.368Z,1.80
2022-07-30T17:24:51.761Z,2.05
2022-07-30T17:27:20.195Z,1.55
2022-07-30T17:29:50.354Z,1.58
2022-07-30T17:32:20.950Z,1.70
2022-07-30T17:34:50.182Z,1.55
2022-07-30T17:37:18.685Z,1.83
2022-07-30T17:40:19.292Z,1.80
2022-07-30T17:42:35.616Z,1.67
2022-07-30T17:45:05.198Z,2.38
2022-07-30T17:47:35.079Z,1.90
2022-07-30T17:50:03.628Z,1.70
2022-07-30T17:52:32.142Z,1.88
2022-07-30T17:55:00.532Z,2.13
2022-07-30T17:57:29.008Z,2.33
2022-07-30T17:59:57.797Z,1.98
2022-07-30T18:02:28.808Z,1.73
2022-07-30T18:04:59.263Z,2.08
2022-07-30T18:07:28.036Z,2.45
2022-07-30T18:09:56.736Z,2.33
2022-07-30T18:12:25.249Z,2.10
2022-07-30T18:14:53.657Z,2.25
2022-07-30T18:17:22.205Z,2.50
2022-07-30T18:19:50.620Z,2.50
2022-07-30T18:22:29.020Z,2.88
2022-07-30T18:25:00.177Z,2.13
2022-07-30T18:27:28.833Z,2.45
2022-07-30T18:29:59.224Z,2.47
2022-07-30T18:32:27.860Z,2.38
2022-07-30T18:34:58.297Z,2.70
2022-07-30T18:37:40.147Z,2.28
2022-07-30T18:40:11.393Z,2.10
2022-07-30T18:42:39.870Z,2.20
2022-07-30T18:45:10.287Z,2.47
2022-07-30T18:47:38.757Z,2.33
2022-07-30T18:50:08.558Z,2.30
2022-07-30T18:52:38.621Z,2.67
2022-07-30T18:55:08.503Z,2.17
2022-07-30T18:57:37.118Z,2.50
2022-07-30T19:00:08.758Z,2.40
2022-07-30T19:02:38.355Z,1.88
2022-07-30T19:05:07.986Z,2.88
2022-07-30T19:07:55.727Z,2.30
2022-07-30T19:10:26.953Z,2.55
2022-07-30T19:12:55.831Z,2.30
2022-07-30T19:15:25.641Z,2.28
2022-07-30T19:17:54.093Z,2.10
2022-07-30T19:20:23.491Z,1.90
2022-07-30T19:23:00.487Z,2.20
2022-07-30T19:25:29.367Z,2.03
2022-07-30T19:27:57.958Z,2.38
2022-07-30T19:30:26.608Z,2.55
2022-07-30T19:32:55.108Z,2.10
2022-07-30T19:35:23.638Z,2.08
2022-07-30T19:37:53.409Z,2.20
2022-07-30T19:40:21.993Z,2.55
2022-07-30T19:42:52.645Z,2.00
2022-07-30T19:45:24.322Z,2.20
2022-07-30T19:47:52.691Z,2.28
2022-07-30T19:50:27.131Z,2.03
2022-07-30T19:52:58.286Z,2.28
2022-07-30T19:55:30.841Z,2.70
2022-07-30T19:58:04.640Z,2.38
2022-07-30T20:00:48.500Z,2.20
2022-07-30T20:03:26.074Z,2.05
2022-07-30T20:06:00.143Z,2.10
2022-07-30T20:08:30.494Z,1.88
2022-07-30T20:11:02.206Z,2.08
2022-07-30T20:13:43.898Z,2.40
2022-07-30T20:16:20.302Z,3.20
2022-07-30T20:18:49.722Z,2.60
2022-07-30T20:21:20.326Z,2.30
2022-07-30T20:23:52.591Z,2.42
2022-07-30T20:26:22.022Z,2.40
2022-07-30T20:28:52.891Z,2.15
2022-07-30T20:31:21.931Z,2.08
2022-07-30T20:33:51.030Z,2.38
2022-07-30T20:36:19.764Z,2.53
2022-07-30T20:38:49.561Z,2.50
2022-07-30T20:41:18.206Z,2.78
2022-07-30T20:43:52.565Z,2.83
2022-07-30T20:46:23.915Z,2.42
2022-07-30T20:48:52.958Z,2.08
2022-07-30T20:51:21.623Z,2.33
2022-07-30T20:54:03.389Z,2.78
2022-07-30T20:56:31.772Z,2.67
2022-07-30T20:59:00.850Z,5.45
2022-07-30T21:01:30.717Z,6.75
2022-07-30T21:03:59.396Z,3.15
2022-07-30T21:06:27.862Z,3.55
2022-07-30T21:11:50.606Z,3.72
2022-07-30T21:14:20.119Z,3.65
2022-07-30T21:16:51.198Z,4.30
2022-07-30T21:22:10.010Z,3.47
2022-07-30T21:24:38.920Z,4.70
2022-07-30T21:27:08.712Z,4.80
2022-07-30T21:32:26.831Z,3.72
2022-07-30T21:34:55.624Z,4.63
2022-07-30T21:37:26.977Z,4.10
2022-07-30T21:40:06.076Z,4.68
2022-07-30T21:42:35.858Z,4.75
2022-07-30T21:45:16.603Z,5.45
2022-07-30T21:47:48.022Z,5.88
2022-07-30T21:50:16.798Z,6.65
2022-07-30T21:52:45.363Z,6.88
2022-07-30T21:55:14.460Z,6.85
2022-07-30T21:57:44.245Z,6.32
2022-07-30T22:00:21.754Z,6.57
2022-07-30T22:02:53.882Z,6.63
2022-07-30T22:05:38.308Z,6.78
2022-07-30T22:08:07.562Z,7.10
2022-07-30T22:10:36.124Z,7.95
2022-07-30T22:13:06.291Z,9.00
2022-07-30T22:15:35.525Z,8.00
2022-07-30T22:18:04.529Z,9.40
2022-07-30T22:20:33.678Z,10.38
2022-07-30T22:23:04.660Z,11.50
2022-07-30T22:25:43.787Z,11.13
2022-07-30T22:28:15.712Z,12.50
2022-07-30T22:30:45.402Z,13.68
2022-07-30T22:33:15.927Z,14.98
2022-07-30T22:35:46.789Z,13.07
2022-07-30T22:38:19.449Z,14.18
2022-07-30T22:40:48.267Z,16.25
2022-07-30T22:43:19.526Z,16.13
2022-07-30T22:45:48.730Z,16.05
2022-07-30T22:48:21.742Z,16.15
2022-07-30T22:50:56.014Z,15.50
2022-07-30T22:54:10.946Z,14.95
2022-07-30T22:56:15.964Z,16.73
2022-07-30T22:58:48.696Z,15.02
2022-07-30T23:01:17.688Z,15.02
2022-07-30T23:03:46.163Z,15.68
2022-07-30T23:06:16.594Z,16.55
2022-07-30T23:08:45.046Z,16.27
2022-07-30T23:11:13.453Z,15.57
2022-07-30T23:12:26.823Z,3.88
2022-07-30T23:12:27.126Z,4.80
2022-07-30T23:12:32.973Z,4.45
2022-07-30T23:13:42.518Z,13.93
2022-07-30T23:16:12.337Z,14.98
2022-07-30T23:18:40.736Z,15.90
2022-07-30T23:21:09.867Z,15.02
2022-07-30T23:23:38.338Z,15.25
2022-07-30T23:26:08.469Z,15.52
2022-07-30T23:28:37.733Z,14.35
2022-07-30T23:31:07.541Z,15.77
2022-07-30T23:33:37.424Z,15.43
2022-07-30T23:36:06.820Z,14.60
2022-07-30T23:38:35.486Z,15.15
2022-07-30T23:41:05.636Z,14.23
2022-07-30T23:43:34.693Z,14.50
2022-07-30T23:46:03.250Z,13.45
2022-07-30T23:48:32.350Z,14.75
2022-07-30T23:51:02.173Z,12.88
2022-07-30T23:53:30.665Z,13.88
2022-07-30T23:55:59.189Z,13.32
2022-07-30T23:58:27.648Z,13.23
